createdAt,value
2018-04-28T00:00:22.405Z,8.00
2018-04-28T00:01:22.391Z,8.00
2018-04-28T00:02:22.374Z,8.00
2018-04-28T00:03:22.353Z,8.00
2018-04-28T00:04:22.337Z,8.00
2018-04-28T00:05:22.320Z,8.00
2018-04-28T00:06:22.303Z,8.00
2018-04-28T00:07:22.287Z,8.00
2018-04-28T00:08:22.267Z,8.00
2018-04-28T00:09:22.251Z,8.00
2018-04-28T00:10:22.231Z,8.00
2018-04-28T00:11:22.216Z,8.00
2018-04-28T00:12:22.202Z,8.00
2018-04-28T00:13:22.180Z,8.00
2018-04-28T00:14:22.165Z,8.00
2018-04-28T00:15:22.148Z,8.00
2018-04-28T00:16:22.131Z,8.00
2018-04-28T00:17:22.120Z,8.00
2018-04-28T00:18:22.103Z,8.00
2018-04-28T00:19:22.078Z,8.00
2018-04-28T00:20:22.070Z,8.00
2018-04-28T00:21:22.045Z,8.00
2018-04-28T00:22:22.032Z,8.00
2018-04-28T00:23:22.008Z,8.00
2018-04-28T00:24:21.992Z,8.00
2018-04-28T00:25:21.979Z,8.00
2018-04-28T00:26:21.957Z,8.00
2018-04-28T00:27:21.939Z,8.00
2018-04-28T00:28:21.922Z,8.00
2018-04-28T00:29:21.921Z,8.00
2018-04-28T00:30:21.887Z,8.00
2018-04-28T00:31:21.870Z,8.00
2018-04-28T00:32:21.862Z,8.00
2018-04-28T00:33:21.837Z,8.00
2018-04-28T00:34:21.817Z,8.00
2018-04-28T00:35:21.810Z,8.00
2018-04-28T00:36:21.785Z,8.00
2018-04-28T00:37:21.773Z,8.00
2018-04-28T00:38:21.749Z,8.00
2018-04-28T00:39:21.731Z,8.00
2018-04-28T00:40:21.715Z,8.00
2018-04-28T00:41:21.700Z,8.00
2018-04-28T00:42:21.688Z,8.00
2018-04-28T00:43:21.663Z,8.00
2018-04-28T00:44:21.647Z,8.00
2018-04-28T00:45:21.637Z,8.00
2018-04-28T00:46:21.610Z,8.00
2018-04-28T00:47:21.595Z,8.00
2018-04-28T00:48:21.577Z,8.00
2018-04-28T00:49:21.560Z,8.00
2018-04-28T00:50:21.552Z,8.00
2018-04-28T00:51:21.564Z,8.00
2018-04-28T00:52:21.509Z,8.00
2018-04-28T00:53:21.492Z,8.00
2018-04-28T00:54:21.474Z,8.00
2018-04-28T00:55:21.458Z,8.00
2018-04-28T00:56:21.439Z,8.00
2018-04-28T00:57:21.426Z,8.00
2018-04-28T00:58:21.413Z,8.00
2018-04-28T00:59:21.388Z,8.00
2018-04-28T01:00:21.371Z,8.00
2018-04-28T01:01:21.363Z,8.00
2018-04-28T01:02:21.336Z,8.00
2018-04-28T01:03:21.328Z,8.00
2018-04-28T01:04:21.304Z,8.00
2018-04-28T01:05:21.284Z,8.00
2018-04-28T01:06:21.269Z,8.00
2018-04-28T01:07:21.285Z,8.00
2018-04-28T01:08:21.241Z,8.00
2018-04-28T01:09:21.218Z,8.00
2018-04-28T01:10:21.200Z,8.00
2018-04-28T01:11:21.185Z,8.00
2018-04-28T01:12:21.172Z,8.00
2018-04-28T01:13:21.148Z,8.00
2018-04-28T01:14:21.141Z,8.00
2018-04-28T01:15:21.124Z,8.00
2018-04-28T01:16:21.098Z,8.00
2018-04-28T01:17:21.080Z,8.00
2018-04-28T01:18:21.064Z,8.00
2018-04-28T01:19:21.047Z,8.00
2018-04-28T01:20:21.032Z,8.00
2018-04-28T01:21:21.017Z,8.00
2018-04-28T01:22:20.994Z,8.00
2018-04-28T01:23:20.985Z,8.00
2018-04-28T01:24:20.959Z,8.00
2018-04-28T01:25:20.945Z,8.00
2018-04-28T01:26:20.933Z,8.00
2018-04-28T01:27:20.908Z,8.00
2018-04-28T01:28:20.891Z,8.00
2018-04-28T01:29:20.874Z,8.00
2018-04-28T01:30:20.855Z,8.00
2018-04-28T01:31:20.850Z,8.00
2018-04-28T01:32:20.823Z,8.00
2018-04-28T01:33:20.808Z,8.00
2018-04-28T01:34:20.787Z,8.00
2018-04-28T01:35:20.770Z,8.00
2018-04-28T01:36:20.753Z,8.00
2018-04-28T01:37:20.736Z,8.00
2018-04-28T01:38:20.718Z,8.00
2018-04-28T01:39:20.703Z,8.00
2018-04-28T01:40:20.684Z,8.00
2018-04-28T01:41:20.667Z,8.00
2018-04-28T01:42:20.654Z,8.00
2018-04-28T01:43:20.634Z,8.00
2018-04-28T01:44:20.617Z,8.00
2018-04-28T01:45:20.600Z,8.00
2018-04-28T01:46:20.598Z,8.00
2018-04-28T01:47:20.564Z,8.00
2018-04-28T01:48:20.546Z,8.00
2018-04-28T01:49:20.535Z,8.00
2018-04-28T01:50:20.516Z,8.00
2018-04-28T01:51:20.495Z,8.00
2018-04-28T01:52:20.478Z,8.00
2018-04-28T01:53:20.461Z,8.00
2018-04-28T01:54:20.443Z,8.00
2018-04-28T01:55:20.426Z,8.00
2018-04-28T01:56:20.408Z,8.00
2018-04-28T01:57:20.392Z,8.00
2018-04-28T01:58:20.384Z,8.00
2018-04-28T01:59:20.357Z,8.00
2018-04-28T02:00:20.346Z,8.00
2018-04-28T02:01:20.325Z,8.00
2018-04-28T02:02:20.306Z,8.00
2018-04-28T02:03:20.294Z,8.00
2018-04-28T02:04:20.273Z,8.00
2018-04-28T02:05:20.255Z,8.00
2018-04-28T02:06:20.238Z,8.00
2018-04-28T02:07:20.225Z,8.00
2018-04-28T02:08:20.202Z,8.00
2018-04-28T02:09:20.187Z,8.00
2018-04-28T02:10:20.169Z,8.00
2018-04-28T02:11:20.151Z,8.00
2018-04-28T02:12:20.135Z,8.00
2018-04-28T02:13:20.121Z,8.00
2018-04-28T02:14:20.101Z,8.00
2018-04-28T02:15:20.083Z,8.00
2018-04-28T02:16:20.065Z,8.00
2018-04-28T02:17:20.055Z,8.00
2018-04-28T02:18:20.032Z,8.00
2018-04-28T02:19:20.016Z,8.00
2018-04-28T02:20:20.010Z,8.00
2018-04-28T02:21:19.983Z,8.00
2018-04-28T02:22:19.964Z,8.00
2018-04-28T02:23:20.155Z,8.00
2018-04-28T02:24:19.929Z,8.00
2018-04-28T02:25:19.912Z,8.00
2018-04-28T02:26:19.897Z,8.00
2018-04-28T02:27:19.878Z,8.00
2018-04-28T02:28:19.865Z,8.00
2018-04-28T02:29:19.895Z,8.00
2018-04-28T02:30:19.824Z,8.00
2018-04-28T02:31:19.809Z,8.00
2018-04-28T02:32:19.791Z,8.00
2018-04-28T02:33:19.776Z,8.00
2018-04-28T02:34:19.757Z,8.00
2018-04-28T02:35:19.752Z,8.00
2018-04-28T02:36:19.723Z,8.00
2018-04-28T02:37:19.715Z,8.00
2018-04-28T02:38:19.687Z,8.00
2018-04-28T02:39:19.672Z,8.00
2018-04-28T02:40:19.655Z,8.00
2018-04-28T02:41:19.636Z,8.00
2018-04-28T02:42:19.617Z,8.00
2018-04-28T02:43:19.603Z,8.00
2018-04-28T02:44:19.583Z,8.00
2018-04-28T02:45:19.566Z,8.00
2018-04-28T02:46:19.557Z,8.00
2018-04-28T02:47:19.548Z,8.00
2018-04-28T02:48:19.514Z,8.00
2018-04-28T02:49:19.496Z,8.00
2018-04-28T02:50:19.488Z,8.00
2018-04-28T02:51:19.463Z,8.00
2018-04-28T02:52:19.443Z,8.00
2018-04-28T02:53:19.430Z,8.00
2018-04-28T02:54:19.409Z,8.00
2018-04-28T02:55:19.393Z,8.00
2018-04-28T02:56:19.376Z,8.00
2018-04-28T02:57:19.358Z,8.00
2018-04-28T02:58:19.340Z,8.00
2018-04-28T02:59:19.323Z,8.00
2018-04-28T03:00:19.305Z,8.00
2018-04-28T03:01:19.287Z,8.00
2018-04-28T03:02:19.270Z,8.00
2018-04-28T03:03:19.262Z,8.00
2018-04-28T03:04:19.239Z,8.00
2018-04-28T03:05:19.219Z,8.00
2018-04-28T03:06:19.210Z,8.00
2018-04-28T03:07:19.184Z,8.00
2018-04-28T03:08:19.167Z,8.00
2018-04-28T03:09:19.147Z,8.00
2018-04-28T03:10:19.140Z,8.00
2018-04-28T03:11:19.113Z,8.00
2018-04-28T03:12:19.096Z,12.00
2018-04-28T03:13:19.079Z,12.00
2018-04-28T03:14:19.062Z,12.00
2018-04-28T03:15:19.045Z,12.00
2018-04-28T03:16:19.034Z,12.00
2018-04-28T03:17:19.010Z,12.00
2018-04-28T03:18:18.998Z,12.00
2018-04-28T03:19:18.973Z,8.00
2018-04-28T03:20:18.957Z,8.00
2018-04-28T03:21:18.938Z,8.00
2018-04-28T03:22:18.922Z,8.00
2018-04-28T03:23:18.954Z,8.00
2018-04-28T03:24:18.937Z,8.00
2018-04-28T03:25:18.871Z,8.00
2018-04-28T03:26:18.905Z,8.00
2018-04-28T03:27:18.834Z,8.00
2018-04-28T03:28:18.818Z,12.00
2018-04-28T03:29:18.799Z,12.00
2018-04-28T03:30:18.781Z,12.00
2018-04-28T03:31:18.767Z,8.00
2018-04-28T03:32:18.748Z,12.00
2018-04-28T03:33:18.731Z,12.00
2018-04-28T03:34:18.711Z,12.00
2018-04-28T03:35:18.695Z,12.00
2018-04-28T03:36:18.677Z,12.00
2018-04-28T03:37:18.662Z,12.00
2018-04-28T03:38:18.642Z,16.00
2018-04-28T03:39:18.625Z,20.00
2018-04-28T03:40:18.613Z,16.00
2018-04-28T03:41:18.591Z,20.00
2018-04-28T03:42:18.572Z,24.00
2018-04-28T03:43:18.557Z,24.00
2018-04-28T03:44:18.536Z,28.00
2018-04-28T03:45:18.522Z,28.00
2018-04-28T03:46:18.509Z,32.00
2018-04-28T03:47:18.483Z,28.00
2018-04-28T03:48:18.469Z,28.00
2018-04-28T03:49:18.449Z,36.00
2018-04-28T03:50:18.431Z,40.00
2018-04-28T03:51:18.413Z,44.00
2018-04-28T03:52:18.404Z,48.00
2018-04-28T03:53:18.378Z,56.00
2018-04-28T03:54:18.368Z,64.00
2018-04-28T03:55:18.341Z,72.00
2018-04-28T03:56:18.329Z,84.00
2018-04-28T03:57:18.313Z,92.00
2018-04-28T03:58:18.290Z,104.00
2018-04-28T03:59:18.274Z,116.00
2018-04-28T04:00:18.256Z,132.00
2018-04-28T04:01:18.250Z,148.00
2018-04-28T04:02:18.227Z,164.00
2018-04-28T04:03:18.202Z,180.00
2018-04-28T04:04:18.190Z,200.00
2018-04-28T04:05:18.165Z,216.00
2018-04-28T04:06:18.155Z,232.00
2018-04-28T04:07:18.128Z,244.00
2018-04-28T04:08:18.113Z,260.00
2018-04-28T04:09:18.096Z,276.00
2018-04-28T04:10:18.077Z,300.00
2018-04-28T04:11:18.059Z,324.00
2018-04-28T04:12:18.042Z,356.00
2018-04-28T04:13:18.028Z,384.00
2018-04-28T04:14:18.006Z,416.00
2018-04-28T04:15:17.990Z,448.00
2018-04-28T04:16:17.990Z,492.00
2018-04-28T04:17:17.956Z,532.00
2018-04-28T04:18:17.963Z,576.00
2018-04-28T04:19:17.920Z,612.00
2018-04-28T04:20:17.909Z,656.00
2018-04-28T04:21:17.884Z,696.00
2018-04-28T04:22:17.867Z,740.00
2018-04-28T04:23:17.855Z,776.00
2018-04-28T04:24:17.830Z,832.00
2018-04-28T04:25:17.815Z,896.00
2018-04-28T04:26:17.812Z,972.00
2018-04-28T04:27:17.778Z,1052.00
2018-04-28T04:28:17.763Z,1132.00
2018-04-28T04:29:17.745Z,1232.00
2018-04-28T04:30:17.741Z,1328.00
2018-04-28T04:31:17.709Z,1428.00
2018-04-28T04:32:17.693Z,1520.00
2018-04-28T04:33:17.673Z,1616.00
2018-04-28T04:34:17.658Z,1724.00
2018-04-28T04:35:17.639Z,1840.00
2018-04-28T04:36:17.624Z,1956.00
2018-04-28T04:37:17.604Z,2080.00
2018-04-28T04:38:17.588Z,2188.00
2018-04-28T04:39:17.577Z,2272.00
2018-04-28T04:40:17.553Z,2336.00
2018-04-28T04:41:17.536Z,2388.00
2018-04-28T04:42:17.518Z,2432.00
2018-04-28T04:43:17.504Z,2500.00
2018-04-28T04:44:17.486Z,2568.00
2018-04-28T04:45:17.467Z,2664.00
2018-04-28T04:46:17.448Z,2760.00
2018-04-28T04:47:17.432Z,2864.00
2018-04-28T04:48:17.416Z,2960.00
2018-04-28T04:49:17.438Z,3056.00
2018-04-28T04:50:17.386Z,3176.00
2018-04-28T04:51:17.361Z,3320.00
2018-04-28T04:52:17.345Z,3408.00
2018-04-28T04:53:17.330Z,3484.00
2018-04-28T04:54:17.313Z,3532.00
2018-04-28T04:55:17.295Z,3580.00
2018-04-28T04:56:17.278Z,3628.00
2018-04-28T04:57:17.262Z,3648.00
2018-04-28T04:58:17.245Z,3652.00
2018-04-28T04:59:17.227Z,3672.00
2018-04-28T05:00:17.219Z,3712.00
2018-04-28T05:01:17.196Z,3748.00
2018-04-28T05:02:17.185Z,3788.00
2018-04-28T05:03:17.160Z,3864.00
2018-04-28T05:04:17.143Z,3964.00
2018-04-28T05:05:17.127Z,4108.00
2018-04-28T05:06:17.110Z,4240.00
2018-04-28T05:07:17.097Z,4400.00
2018-04-28T05:08:17.077Z,4544.00
2018-04-28T05:09:17.060Z,4644.00
2018-04-28T05:10:17.059Z,4776.00
2018-04-28T05:11:17.027Z,4880.00
2018-04-28T05:12:17.015Z,4924.00
2018-04-28T05:13:16.992Z,4956.00
2018-04-28T05:14:16.975Z,4956.00
2018-04-28T05:15:16.969Z,4912.00
2018-04-28T05:16:16.943Z,4972.00
2018-04-28T05:17:16.928Z,5040.00
2018-04-28T05:18:16.909Z,5160.00
2018-04-28T05:19:16.899Z,5332.00
2018-04-28T05:20:16.877Z,5520.00
2018-04-28T05:21:16.861Z,5612.00
2018-04-28T05:22:16.844Z,5764.00
2018-04-28T05:23:16.826Z,6036.00
2018-04-28T05:24:16.812Z,6524.00
2018-04-28T05:25:16.795Z,7092.00
2018-04-28T05:26:16.779Z,8196.00
2018-04-28T05:27:16.762Z,10120.00
2018-04-28T05:28:16.745Z,12636.00
2018-04-28T05:29:16.729Z,15136.00
2018-04-28T05:30:16.712Z,18816.00
2018-04-28T05:31:16.695Z,22432.00
2018-04-28T05:32:16.681Z,23680.00
2018-04-28T05:33:16.667Z,22944.00
2018-04-28T05:34:16.648Z,19168.00
2018-04-28T05:35:16.633Z,19904.00
2018-04-28T05:36:16.619Z,20832.00
2018-04-28T05:37:16.603Z,23424.00
2018-04-28T05:38:16.588Z,26272.00
2018-04-28T05:39:16.572Z,27744.00
2018-04-28T05:40:16.558Z,24320.00
2018-04-28T05:41:16.544Z,23296.00
2018-04-28T05:42:16.530Z,22080.00
2018-04-28T05:43:16.518Z,20256.00
2018-04-28T05:44:16.558Z,19776.00
2018-04-28T05:45:16.493Z,19520.00
2018-04-28T05:46:16.473Z,21056.00
2018-04-28T05:47:16.462Z,22880.00
2018-04-28T05:48:16.479Z,24352.00
2018-04-28T05:49:16.434Z,16704.00
2018-04-28T05:50:16.423Z,13420.00
2018-04-28T05:51:16.415Z,17504.00
2018-04-28T05:52:16.404Z,15424.00
2018-04-28T05:53:16.385Z,13576.00
2018-04-28T05:54:16.375Z,24704.00
2018-04-28T05:55:16.357Z,16736.00
2018-04-28T05:56:16.344Z,11732.00
2018-04-28T05:57:16.334Z,13024.00
2018-04-28T05:58:16.317Z,17440.00
2018-04-28T05:59:16.309Z,21440.00
2018-04-28T06:00:16.295Z,21152.00
2018-04-28T06:01:16.283Z,20992.00
2018-04-28T06:02:16.276Z,21088.00
2018-04-28T06:03:16.255Z,21600.00
2018-04-28T06:04:16.243Z,23616.00
2018-04-28T06:05:16.230Z,25600.00
2018-04-28T06:06:16.217Z,23488.00
2018-04-28T06:07:16.209Z,20768.00
2018-04-28T06:08:16.196Z,19808.00
2018-04-28T06:09:16.180Z,20416.00
2018-04-28T06:10:16.172Z,20352.00
2018-04-28T06:11:16.163Z,16960.00
2018-04-28T06:12:16.143Z,14744.00
2018-04-28T06:13:16.131Z,23360.00
2018-04-28T06:14:16.117Z,25376.00
2018-04-28T06:15:16.105Z,27776.00
2018-04-28T06:16:16.100Z,30560.00
2018-04-28T06:17:16.089Z,33728.00
2018-04-28T06:18:16.077Z,33152.00
2018-04-28T06:19:16.056Z,29760.00
2018-04-28T06:20:16.092Z,20544.00
2018-04-28T06:21:16.033Z,25920.00
2018-04-28T06:22:16.020Z,19808.00
2018-04-28T06:23:16.010Z,16896.00
2018-04-28T06:24:15.998Z,14088.00
2018-04-28T06:25:16.045Z,13088.00
2018-04-28T06:26:15.974Z,12076.00
2018-04-28T06:27:15.962Z,11384.00
2018-04-28T06:28:15.964Z,10768.00
2018-04-28T06:29:15.940Z,10440.00
2018-04-28T06:30:15.928Z,10304.00
2018-04-28T06:31:15.914Z,9988.00
2018-04-28T06:32:15.902Z,9712.00
2018-04-28T06:33:15.890Z,9492.00
2018-04-28T06:34:15.880Z,9756.00
2018-04-28T06:35:15.865Z,10272.00
2018-04-28T06:36:15.854Z,11324.00
2018-04-28T06:37:15.883Z,12056.00
2018-04-28T06:38:15.827Z,12608.00
2018-04-28T06:39:15.820Z,13292.00
2018-04-28T06:40:15.804Z,14972.00
2018-04-28T06:41:15.819Z,15776.00
2018-04-28T06:42:15.779Z,20928.00
2018-04-28T06:43:15.765Z,22080.00
2018-04-28T06:44:15.753Z,20096.00
2018-04-28T06:45:15.740Z,28544.00
2018-04-28T06:46:15.734Z,25664.00
2018-04-28T06:47:15.715Z,18368.00
2018-04-28T06:48:15.702Z,19264.00
2018-04-28T06:49:15.697Z,17408.00
2018-04-28T06:50:15.676Z,18464.00
2018-04-28T06:51:15.664Z,15248.00
2018-04-28T06:52:15.651Z,14460.00
2018-04-28T06:53:15.645Z,13572.00
2018-04-28T06:54:15.625Z,13444.00
2018-04-28T06:55:15.613Z,14124.00
2018-04-28T06:56:15.600Z,16160.00
2018-04-28T06:57:15.591Z,14984.00
2018-04-28T06:58:15.575Z,16960.00
2018-04-28T06:59:15.565Z,19424.00
2018-04-28T07:00:15.559Z,17376.00
2018-04-28T07:01:15.544Z,17280.00
2018-04-28T07:02:15.526Z,14792.00
2018-04-28T07:03:15.517Z,16000.00
2018-04-28T07:04:15.504Z,18176.00
2018-04-28T07:05:15.492Z,14932.00
2018-04-28T07:06:15.483Z,16448.00
2018-04-28T07:07:15.469Z,14540.00
2018-04-28T07:08:15.460Z,16544.00
2018-04-28T07:09:15.439Z,15172.00
2018-04-28T07:10:15.439Z,15772.00
2018-04-28T07:11:15.413Z,15164.00
2018-04-28T07:12:15.400Z,15268.00
2018-04-28T07:13:15.390Z,15512.00
2018-04-28T07:14:15.376Z,15296.00
2018-04-28T07:15:15.366Z,16160.00
2018-04-28T07:16:15.350Z,16736.00
2018-04-28T07:17:15.339Z,17152.00
2018-04-28T07:18:15.326Z,18208.00
2018-04-28T07:19:15.318Z,18496.00
2018-04-28T07:20:15.307Z,18624.00
2018-04-28T07:21:15.292Z,19424.00
2018-04-28T07:22:15.287Z,19424.00
2018-04-28T07:23:15.265Z,19264.00
2018-04-28T07:24:15.255Z,18336.00
2018-04-28T07:25:15.243Z,18400.00
2018-04-28T07:26:15.231Z,19200.00
2018-04-28T07:27:15.219Z,16448.00
2018-04-28T07:28:15.211Z,18816.00
2018-04-28T07:29:15.238Z,16288.00
2018-04-28T07:30:15.198Z,17024.00
2018-04-28T07:31:15.181Z,20128.00
2018-04-28T07:32:15.161Z,17376.00
2018-04-28T07:33:15.155Z,19008.00
2018-04-28T07:34:15.137Z,18912.00
2018-04-28T07:35:15.194Z,18784.00
2018-04-28T07:36:15.115Z,21856.00
2018-04-28T07:37:15.105Z,19168.00
2018-04-28T07:38:15.096Z,19616.00
2018-04-28T07:39:15.084Z,38912.00
2018-04-28T07:40:15.070Z,43872.00
2018-04-28T07:41:15.074Z,25312.00
2018-04-28T07:42:15.072Z,28448.00
2018-04-28T07:43:15.034Z,40672.00
2018-04-28T07:44:15.022Z,24064.00
2018-04-28T07:45:15.015Z,26624.00
2018-04-28T07:46:15.010Z,35520.00
2018-04-28T07:47:14.992Z,25312.00
2018-04-28T07:48:14.977Z,21184.00
2018-04-28T07:49:14.967Z,20544.00
2018-04-28T07:50:14.956Z,21376.00
2018-04-28T07:51:14.952Z,20896.00
2018-04-28T07:52:14.941Z,19936.00
2018-04-28T07:53:14.923Z,19456.00
2018-04-28T07:54:14.916Z,19712.00
2018-04-28T07:55:15.055Z,19744.00
2018-04-28T07:56:14.893Z,20064.00
2018-04-28T07:57:14.881Z,20512.00
2018-04-28T07:58:14.868Z,21088.00
2018-04-28T07:59:14.859Z,21408.00
2018-04-28T08:00:14.872Z,23680.00
2018-04-28T08:01:14.840Z,34592.00
2018-04-28T08:02:14.842Z,23712.00
2018-04-28T08:03:14.816Z,21728.00
2018-04-28T08:04:14.804Z,22752.00
2018-04-28T08:05:14.793Z,23456.00
2018-04-28T08:06:14.791Z,22432.00
2018-04-28T08:07:14.786Z,21184.00
2018-04-28T08:08:14.763Z,21760.00
2018-04-28T08:09:14.752Z,19808.00
2018-04-28T08:10:14.740Z,19808.00
2018-04-28T08:11:14.729Z,19200.00
2018-04-28T08:12:14.735Z,18304.00
2018-04-28T08:13:14.711Z,18400.00
2018-04-28T08:14:14.711Z,18112.00
2018-04-28T08:15:14.715Z,17760.00
2018-04-28T08:16:14.677Z,17376.00
2018-04-28T08:17:14.666Z,16960.00
2018-04-28T08:18:14.671Z,14440.00
2018-04-28T08:19:14.652Z,12872.00
2018-04-28T08:20:14.643Z,12284.00
2018-04-28T08:21:14.625Z,11796.00
2018-04-28T08:22:14.613Z,11464.00
2018-04-28T08:23:14.602Z,11424.00
2018-04-28T08:24:14.592Z,10884.00
2018-04-28T08:25:14.590Z,9448.00
2018-04-28T08:26:14.578Z,8800.00
2018-04-28T08:27:14.559Z,8600.00
2018-04-28T08:28:14.550Z,8388.00
2018-04-28T08:29:14.544Z,8516.00
2018-04-28T08:30:14.526Z,8704.00
2018-04-28T08:31:14.522Z,8472.00
2018-04-28T08:32:14.603Z,8472.00
2018-04-28T08:33:14.523Z,9100.00
2018-04-28T08:34:14.480Z,9856.00
2018-04-28T08:35:14.468Z,9576.00
2018-04-28T08:36:14.457Z,9480.00
2018-04-28T08:37:14.606Z,9360.00
2018-04-28T08:38:14.441Z,9592.00
2018-04-28T08:39:14.433Z,10020.00
2018-04-28T08:40:14.414Z,10292.00
2018-04-28T08:41:14.398Z,10656.00
2018-04-28T08:42:14.386Z,10744.00
2018-04-28T08:43:14.373Z,10812.00
2018-04-28T08:44:14.367Z,11252.00
2018-04-28T08:45:14.362Z,11928.00
2018-04-28T08:46:14.344Z,13276.00
2018-04-28T08:47:14.324Z,14636.00
2018-04-28T08:48:14.312Z,15280.00
2018-04-28T08:49:14.310Z,15924.00
2018-04-28T08:50:14.288Z,16256.00
2018-04-28T08:51:14.275Z,16800.00
2018-04-28T08:52:14.271Z,17184.00
2018-04-28T08:53:14.251Z,17600.00
2018-04-28T08:54:14.238Z,17728.00
2018-04-28T08:55:14.227Z,19392.00
2018-04-28T08:56:14.215Z,20992.00
2018-04-28T08:57:14.203Z,21184.00
2018-04-28T08:58:14.190Z,21504.00
2018-04-28T08:59:14.185Z,23456.00
2018-04-28T09:00:14.168Z,23456.00
2018-04-28T09:01:14.157Z,24032.00
2018-04-28T09:02:14.150Z,24928.00
2018-04-28T09:03:14.131Z,27936.00
2018-04-28T09:04:14.120Z,28768.00
2018-04-28T09:05:14.108Z,28384.00
2018-04-28T09:06:14.094Z,26816.00
2018-04-28T09:07:14.088Z,24672.00
2018-04-28T09:08:14.079Z,19616.00
2018-04-28T09:09:14.062Z,19168.00
2018-04-28T09:10:14.050Z,21280.00
2018-04-28T09:11:14.054Z,25248.00
2018-04-28T09:12:14.037Z,25824.00
2018-04-28T09:13:14.024Z,26304.00
2018-04-28T09:14:14.008Z,27328.00
2018-04-28T09:15:13.996Z,27744.00
2018-04-28T09:16:13.985Z,25792.00
2018-04-28T09:17:13.974Z,24640.00
2018-04-28T09:18:13.963Z,26304.00
2018-04-28T09:19:13.961Z,30080.00
2018-04-28T09:20:13.942Z,26976.00
2018-04-28T09:21:13.944Z,28000.00
2018-04-28T09:22:13.920Z,26848.00
2018-04-28T09:23:13.911Z,27904.00
2018-04-28T09:24:13.901Z,23488.00
2018-04-28T09:25:13.900Z,22880.00
2018-04-28T09:26:13.911Z,27040.00
2018-04-28T09:27:13.879Z,35232.00
2018-04-28T09:28:13.863Z,29568.00
2018-04-28T09:29:13.852Z,50560.00
2018-04-28T09:30:13.841Z,29856.00
2018-04-28T09:31:13.833Z,36160.00
2018-04-28T09:32:13.824Z,69280.00
2018-04-28T09:33:13.830Z,56832.00
2018-04-28T09:34:13.811Z,54688.00
2018-04-28T09:35:13.800Z,41024.00
2018-04-28T09:36:13.796Z,50208.00
2018-04-28T09:37:13.779Z,23680.00
2018-04-28T09:38:13.772Z,51808.00
2018-04-28T09:39:13.764Z,102208.00
2018-04-28T09:40:13.757Z,44288.00
2018-04-28T09:41:13.755Z,42720.00
2018-04-28T09:42:13.738Z,46080.00
2018-04-28T09:43:13.737Z,44704.00
2018-04-28T09:44:13.725Z,63168.00
2018-04-28T09:45:13.720Z,31616.00
2018-04-28T09:46:13.710Z,26272.00
2018-04-28T09:47:13.707Z,35552.00
2018-04-28T09:48:13.697Z,32768.00
2018-04-28T09:49:13.695Z,41920.00
2018-04-28T09:50:13.684Z,36544.00
2018-04-28T09:51:13.678Z,26528.00
2018-04-28T09:52:13.671Z,21984.00
2018-04-28T09:53:13.677Z,47840.00
2018-04-28T09:54:13.655Z,14228.00
2018-04-28T09:55:13.662Z,18496.00
2018-04-28T09:56:13.648Z,15644.00
2018-04-28T09:57:13.640Z,12412.00
2018-04-28T09:58:13.639Z,12836.00
2018-04-28T09:59:13.620Z,13212.00
2018-04-28T10:00:13.623Z,12064.00
2018-04-28T10:01:13.606Z,11272.00
2018-04-28T10:02:13.598Z,12224.00
2018-04-28T10:03:13.596Z,13224.00
2018-04-28T10:04:13.581Z,13748.00
2018-04-28T10:05:13.572Z,13836.00
2018-04-28T10:06:13.563Z,13668.00
2018-04-28T10:07:13.558Z,13364.00
2018-04-28T10:08:13.546Z,12580.00
2018-04-28T10:09:13.538Z,11872.00
2018-04-28T10:10:13.529Z,11592.00
2018-04-28T10:11:13.518Z,11144.00
2018-04-28T10:12:13.508Z,11776.00
2018-04-28T10:13:13.502Z,13328.00
2018-04-28T10:14:13.491Z,15364.00
2018-04-28T10:15:13.480Z,15132.00
2018-04-28T10:16:13.476Z,15176.00
2018-04-28T10:17:13.470Z,16960.00
2018-04-28T10:18:13.451Z,17824.00
2018-04-28T10:19:13.458Z,19648.00
2018-04-28T10:20:13.450Z,19872.00
2018-04-28T10:21:13.421Z,20160.00
2018-04-28T10:22:13.411Z,19200.00
2018-04-28T10:23:13.404Z,17472.00
2018-04-28T10:24:13.395Z,16768.00
2018-04-28T10:25:13.389Z,17984.00
2018-04-28T10:26:13.377Z,19520.00
2018-04-28T10:27:13.359Z,20000.00
2018-04-28T10:28:13.366Z,20128.00
2018-04-28T10:29:13.339Z,19616.00
2018-04-28T10:30:13.328Z,18784.00
2018-04-28T10:31:13.338Z,18176.00
2018-04-28T10:32:13.317Z,17696.00
2018-04-28T10:33:13.299Z,16800.00
2018-04-28T10:34:13.287Z,17024.00
2018-04-28T10:35:13.278Z,17472.00
2018-04-28T10:36:13.273Z,17440.00
2018-04-28T10:37:13.258Z,17344.00
2018-04-28T10:38:13.246Z,17024.00
2018-04-28T10:39:13.237Z,16352.00
2018-04-28T10:40:13.226Z,16108.00
2018-04-28T10:41:13.218Z,15080.00
2018-04-28T10:42:13.221Z,13764.00
2018-04-28T10:43:13.196Z,12928.00
2018-04-28T10:44:13.192Z,12296.00
2018-04-28T10:45:13.183Z,11468.00
2018-04-28T10:46:13.172Z,10156.00
2018-04-28T10:47:13.157Z,8944.00
2018-04-28T10:48:13.153Z,8020.00
2018-04-28T10:49:13.132Z,8152.00
2018-04-28T10:50:13.124Z,8408.00
2018-04-28T10:51:13.112Z,9044.00
2018-04-28T10:52:13.107Z,11280.00
2018-04-28T10:53:13.091Z,12956.00
2018-04-28T10:54:13.227Z,13864.00
2018-04-28T10:55:13.074Z,14860.00
2018-04-28T10:56:13.057Z,15644.00
2018-04-28T10:57:13.046Z,17504.00
2018-04-28T10:58:13.035Z,18976.00
2018-04-28T10:59:13.030Z,19840.00
2018-04-28T11:00:13.017Z,18592.00
2018-04-28T11:01:13.002Z,17920.00
2018-04-28T11:02:12.991Z,19776.00
2018-04-28T11:03:12.987Z,22848.00
2018-04-28T11:04:12.968Z,22432.00
2018-04-28T11:05:12.959Z,26752.00
2018-04-28T11:06:13.032Z,24064.00
2018-04-28T11:07:12.935Z,25696.00
2018-04-28T11:08:12.925Z,32640.00
2018-04-28T11:09:12.929Z,23232.00
2018-04-28T11:10:12.902Z,22752.00
2018-04-28T11:11:12.897Z,20352.00
2018-04-28T11:12:12.888Z,18720.00
2018-04-28T11:13:12.939Z,17408.00
2018-04-28T11:14:12.864Z,15280.00
2018-04-28T11:15:12.852Z,15384.00
2018-04-28T11:16:12.842Z,15600.00
2018-04-28T11:17:12.837Z,15324.00
2018-04-28T11:18:12.825Z,14636.00
2018-04-28T11:19:12.813Z,14056.00
2018-04-28T11:20:12.806Z,13448.00
2018-04-28T11:21:12.792Z,12984.00
2018-04-28T11:22:12.786Z,12772.00
2018-04-28T11:23:12.770Z,13076.00
2018-04-28T11:24:12.773Z,13056.00
2018-04-28T11:25:12.751Z,12992.00
2018-04-28T11:26:12.748Z,13084.00
2018-04-28T11:27:12.728Z,13192.00
2018-04-28T11:28:12.718Z,13012.00
2018-04-28T11:29:12.711Z,12452.00
2018-04-28T11:30:12.696Z,11948.00
2018-04-28T11:31:12.693Z,11624.00
2018-04-28T11:32:12.693Z,11372.00
2018-04-28T11:33:12.673Z,11080.00
2018-04-28T11:34:12.655Z,10820.00
2018-04-28T11:35:12.648Z,10964.00
2018-04-28T11:36:12.639Z,11236.00
2018-04-28T11:37:12.627Z,11880.00
2018-04-28T11:38:12.651Z,13056.00
2018-04-28T11:39:12.600Z,15112.00
2018-04-28T11:40:12.594Z,16576.00
2018-04-28T11:41:12.603Z,16576.00
2018-04-28T11:42:12.571Z,16864.00
2018-04-28T11:43:12.559Z,18368.00
2018-04-28T11:44:12.552Z,20000.00
2018-04-28T11:45:12.534Z,21472.00
2018-04-28T11:46:12.524Z,21632.00
2018-04-28T11:47:12.567Z,20096.00
2018-04-28T11:48:12.501Z,18624.00
2018-04-28T11:49:12.490Z,18016.00
2018-04-28T11:50:12.487Z,17344.00
2018-04-28T11:51:12.468Z,16896.00
2018-04-28T11:52:12.468Z,16832.00
2018-04-28T11:53:12.455Z,16608.00
2018-04-28T11:54:12.436Z,16068.00
2018-04-28T11:55:12.431Z,15264.00
2018-04-28T11:56:12.427Z,13552.00
2018-04-28T11:57:12.417Z,11756.00
2018-04-28T11:58:12.392Z,11316.00
2018-04-28T11:59:12.405Z,12216.00
2018-04-28T12:00:12.372Z,12632.00
2018-04-28T12:01:12.376Z,12976.00
2018-04-28T12:02:12.351Z,12944.00
2018-04-28T12:03:12.340Z,12512.00
2018-04-28T12:04:12.331Z,12088.00
2018-04-28T12:05:12.368Z,11488.00
2018-04-28T12:06:12.408Z,11504.00
2018-04-28T12:07:12.297Z,11952.00
2018-04-28T12:08:12.291Z,12300.00
2018-04-28T12:09:12.279Z,11472.00
2018-04-28T12:10:12.267Z,11084.00
2018-04-28T12:11:12.264Z,10628.00
2018-04-28T12:12:12.245Z,10500.00
2018-04-28T12:13:12.234Z,10016.00
2018-04-28T12:14:12.223Z,9708.00
2018-04-28T12:15:12.217Z,9748.00